Time;durP1;ratioP1;P1;durP2;ratioP2;P2;SDS_P1;SDS_P2;PMS_P1;PMS_P2;Temp;Humidity;BMP_temperature;BMP_pressure;BME280_temperature;BME280_humidity;BME280_pressure;Samples;Min_cycle;Max_cycle;Signal;HPM_P1;HPM_P2
2023/05/16 00:00:42;;;;;;;1.40;1.40;;;;;;;;;;4181031;28;20049;-63
2023/05/16 00:03:02;;;;;;;1.20;1.20;;;;;;;;;;4181510;28;20079;-63
2023/05/16 00:05:23;;;;;;;1.33;1.33;;;;;;;;;;4178078;28;20045;-63
2023/05/16 00:07:44;;;;;;;1.55;1.45;;;;;;;;;;4179908;28;20264;-63
2023/05/16 00:10:04;;;;;;;1.20;1.20;;;;;;;;;;4180268;28;20144;-63
2023/05/16 00:12:25;;;;;;;1.33;1.33;;;;;;;;;;4178092;28;20048;-64
2023/05/16 00:14:46;;;;;;;1.05;1.05;;;;;;;;;;4174831;28;20116;-63
2023/05/16 00:17:10;;;;;;;1.25;1.25;;;;;;;;;;4180242;28;20044;-63
2023/05/16 00:19:31;;;;;;;1.20;1.20;;;;;;;;;;4180443;28;20088;-63
2023/05/16 00:21:51;;;;;;;1.20;1.20;;;;;;;;;;4177209;28;20454;-62
2023/05/16 00:24:11;;;;;;;1.13;1.13;;;;;;;;;;4175206;28;20059;-62
2023/05/16 00:26:32;;;;;;;1.30;1.30;;;;;;;;;;4177755;28;20048;-62
2023/05/16 00:28:52;;;;;;;1.42;1.42;;;;;;;;;;4176008;28;20240;-63
2023/05/16 00:31:12;;;;;;;1.30;1.30;;;;;;;;;;4181602;28;20059;-62
2023/05/16 00:33:33;;;;;;;1.40;1.30;;;;;;;;;;4180767;28;20048;-62
2023/05/16 00:35:53;;;;;;;1.25;1.25;;;;;;;;;;4182003;28;20122;-62
2023/05/16 00:38:14;;;;;;;1.45;1.30;;;;;;;;;;4181016;28;20044;-62
2023/05/16 00:40:34;;;;;;;1.63;1.63;;;;;;;;;;4183274;28;20083;-63
2023/05/16 00:42:54;;;;;;;1.10;1.10;;;;;;;;;;4180267;28;20083;-63
2023/05/16 00:45:15;;;;;;;1.15;1.15;;;;;;;;;;4179866;28;20048;-63
2023/05/16 00:47:35;;;;;;;1.20;1.20;;;;;;;;;;4179072;28;20252;-63
2023/05/16 00:49:56;;;;;;;1.10;1.10;;;;;;;;;;4178734;28;20061;-63
2023/05/16 00:52:16;;;;;;;1.50;1.50;;;;;;;;;;4177211;28;20275;-63
2023/05/16 00:54:37;;;;;;;1.33;1.33;;;;;;;;;;4176366;28;20056;-63
2023/05/16 00:56:57;;;;;;;1.42;1.42;;;;;;;;;;4177525;28;20144;-63
2023/05/16 00:59:17;;;;;;;1.30;1.30;;;;;;;;;;4175303;28;20075;-63
2023/05/16 01:01:37;;;;;;;3.83;1.73;;;;;;;;;;4204994;22;20246;-63
2023/05/16 01:03:59;;;;;;;1.25;1.25;;;;;;;;;;4199823;28;20059;-61
2023/05/16 01:06:20;;;;;;;1.38;1.38;;;;;;;;;;4205600;28;20048;-61
2023/05/16 01:08:40;;;;;;;1.33;1.33;;;;;;;;;;4197328;28;20072;-61
2023/05/16 01:11:08;;;;;;;1.33;1.33;;;;;;;;;;4202925;28;20063;-61
2023/05/16 01:13:28;;;;;;;1.70;1.30;;;;;;;;;;4203801;28;20374;-61
2023/05/16 01:16:08;;;;;;;1.50;1.50;;;;;;;;;;4198562;28;20117;-61
2023/05/16 01:18:32;;;;;;;1.50;1.50;;;;;;;;;;4197273;28;20144;-61
2023/05/16 01:21:02;;;;;;;1.63;1.20;;;;;;;;;;4200624;28;20052;-61
2023/05/16 01:23:22;;;;;;;1.40;1.30;;;;;;;;;;4189056;28;20063;-61
2023/05/16 01:25:48;;;;;;;1.60;1.60;;;;;;;;;;4203540;28;20047;-61
2023/05/16 01:28:09;;;;;;;1.30;1.30;;;;;;;;;;4202046;28;20082;-61
2023/05/16 01:30:35;;;;;;;1.50;1.50;;;;;;;;;;4199890;28;20055;-61
2023/05/16 01:32:55;;;;;;;1.33;1.33;;;;;;;;;;4204220;28;20044;-61
2023/05/16 01:35:16;;;;;;;1.27;1.27;;;;;;;;;;4202390;28;20098;-61
2023/05/16 01:37:40;;;;;;;1.95;1.20;;;;;;;;;;4199078;28;20405;-61
2023/05/16 01:40:08;;;;;;;1.30;1.30;;;;;;;;;;4198998;28;20062;-62
2023/05/16 01:42:31;;;;;;;1.45;1.35;;;;;;;;;;4205397;28;20075;-62
2023/05/16 01:44:54;;;;;;;1.52;1.52;;;;;;;;;;4205402;28;20039;-60
2023/05/16 01:47:16;;;;;;;1.30;1.30;;;;;;;;;;4202882;28;20097;-62
2023/05/16 01:49:39;;;;;;;1.60;1.60;;;;;;;;;;4205303;28;20090;-61
2023/05/16 01:52:00;;;;;;;;;;;;;;;;;;4205427;28;20259;-61
2023/05/16 01:54:21;;;;;;;1.77;1.40;;;;;;;;;;4203464;28;19931;-61
2023/05/16 01:56:44;;;;;;;1.38;1.38;;;;;;;;;;4203503;28;20047;-61
2023/05/16 01:59:04;;;;;;;1.65;1.30;;;;;;;;;;4205141;28;20185;-61
2023/05/16 02:01:24;;;;;;;1.70;1.40;;;;;;;;;;4204742;28;20247;-60
2023/05/16 02:03:45;;;;;;;2.05;1.30;;;;;;;;;;4203800;28;20047;-60
2023/05/16 02:06:05;;;;;;;1.73;1.73;;;;;;;;;;4207804;28;20114;-61
2023/05/16 02:08:25;;;;;;;1.30;1.20;;;;;;;;;;4207358;28;20055;-60
2023/05/16 02:10:45;;;;;;;1.30;1.30;;;;;;;;;;4208230;28;20104;-60
2023/05/16 02:13:05;;;;;;;1.42;1.42;;;;;;;;;;4206651;28;20055;-60
2023/05/16 02:15:25;;;;;;;1.50;1.50;;;;;;;;;;4207670;28;20063;-61
2023/05/16 02:17:47;;;;;;;1.40;1.40;;;;;;;;;;4207761;28;20055;-60
2023/05/16 02:20:10;;;;;;;1.60;1.60;;;;;;;;;;4206823;28;20060;-60
2023/05/16 02:22:30;;;;;;;1.60;1.20;;;;;;;;;;4207201;28;20127;-60
2023/05/16 02:24:51;;;;;;;1.40;1.40;;;;;;;;;;4207718;28;20078;-60
2023/05/16 02:27:10;;;;;;;1.30;1.30;;;;;;;;;;4207998;28;20087;-60
2023/05/16 02:29:30;;;;;;;1.52;1.42;;;;;;;;;;4207857;28;20051;-60
2023/05/16 02:31:51;;;;;;;1.40;1.40;;;;;;;;;;4207567;28;20090;-60
2023/05/16 02:34:11;;;;;;;1.42;1.42;;;;;;;;;;4207834;28;20043;-60
2023/05/16 02:36:33;;;;;;;1.30;1.30;;;;;;;;;;4207077;28;20056;-60
2023/05/16 02:38:53;;;;;;;1.70;1.70;;;;;;;;;;4207130;28;20104;-59
2023/05/16 02:41:13;;;;;;;1.40;1.40;;;;;;;;;;4207418;28;20087;-60
2023/05/16 02:43:33;;;;;;;1.42;1.42;;;;;;;;;;4207225;28;20070;-60
2023/05/16 02:45:53;;;;;;;1.52;1.40;;;;;;;;;;4207633;28;20046;-60
2023/05/16 02:48:14;;;;;;;1.40;1.40;;;;;;;;;;4207296;28;20052;-60
2023/05/16 02:50:34;;;;;;;2.05;1.70;;;;;;;;;;4207270;28;20048;-60
2023/05/16 02:52:54;;;;;;;1.40;1.40;;;;;;;;;;4207421;28;20105;-60
2023/05/16 02:55:15;;;;;;;1.35;1.35;;;;;;;;;;4207286;28;20068;-61
2023/05/16 02:57:42;;;;;;;1.58;1.52;;;;;;;;;;4206782;28;20051;-60
2023/05/16 03:00:04;;;;;;;1.70;1.70;;;;;;;;;;4207547;28;20120;-60
2023/05/16 03:02:25;;;;;;;2.22;2.03;;;;;;;;;;4207622;28;20058;-61
2023/05/16 03:04:46;;;;;;;2.03;2.03;;;;;;;;;;4207117;28;20288;-60
2023/05/16 03:07:06;;;;;;;1.30;1.30;;;;;;;;;;4206283;28;20139;-60
2023/05/16 03:09:27;;;;;;;1.50;1.50;;;;;;;;;;4206903;28;20036;-60
2023/05/16 03:11:47;;;;;;;1.50;1.50;;;;;;;;;;4207409;28;20056;-60
2023/05/16 03:14:07;;;;;;;1.80;1.80;;;;;;;;;;4199764;28;20099;-60
2023/05/16 03:16:27;;;;;;;1.40;1.30;;;;;;;;;;4207398;28;20048;-60
2023/05/16 03:18:48;;;;;;;1.85;1.80;;;;;;;;;;4192325;28;20393;-60
2023/05/16 03:21:08;;;;;;;1.30;1.30;;;;;;;;;;4207359;28;20085;-60
2023/05/16 03:23:28;;;;;;;1.70;1.60;;;;;;;;;;4207316;28;20102;-60
2023/05/16 03:25:48;;;;;;;1.75;1.25;;;;;;;;;;4207299;28;20075;-60
2023/05/16 03:28:09;;;;;;;1.52;1.52;;;;;;;;;;4205660;28;20082;-60
2023/05/16 03:30:29;;;;;;;1.75;1.20;;;;;;;;;;4206703;28;20365;-61
2023/05/16 03:32:50;;;;;;;1.40;1.40;;;;;;;;;;4205475;28;20063;-60
2023/05/16 03:35:11;;;;;;;1.20;1.20;;;;;;;;;;4207039;28;20063;-61
2023/05/16 03:37:31;;;;;;;1.48;1.38;;;;;;;;;;4205214;28;20056;-60
2023/05/16 03:39:51;;;;;;;1.23;1.23;;;;;;;;;;4206302;28;20366;-61
2023/05/16 03:42:11;;;;;;;1.30;1.30;;;;;;;;;;4207576;28;20185;-60
2023/05/16 03:44:31;;;;;;;1.42;1.42;;;;;;;;;;4205720;28;20186;-61
2023/05/16 03:46:53;;;;;;;1.30;1.30;;;;;;;;;;4206876;28;20048;-60
2023/05/16 03:49:12;;;;;;;1.52;1.52;;;;;;;;;;4206965;28;20043;-61
2023/05/16 03:51:33;;;;;;;1.50;1.50;;;;;;;;;;4206636;28;20247;-60
2023/05/16 03:53:53;;;;;;;1.60;1.60;;;;;;;;;;4206211;28;20089;-61
2023/05/16 03:56:13;;;;;;;1.23;1.20;;;;;;;;;;4206355;28;20051;-60
2023/05/16 03:58:33;;;;;;;1.48;1.48;;;;;;;;;;4206650;28;20052;-61
2023/05/16 04:00:54;;;;;;;1.23;1.23;;;;;;;;;;4205849;28;20078;-61
2023/05/16 04:03:14;;;;;;;1.50;1.50;;;;;;;;;;4191103;28;20048;-61
2023/05/16 04:05:34;;;;;;;1.50;1.50;;;;;;;;;;4206854;28;20113;-61
2023/05/16 04:07:54;;;;;;;1.02;1.02;;;;;;;;;;4206257;28;20464;-61
2023/05/16 04:10:14;;;;;;;1.42;1.42;;;;;;;;;;4204932;28;20050;-63
2023/05/16 04:12:34;;;;;;;1.30;1.30;;;;;;;;;;4206440;28;20047;-61
2023/05/16 04:14:54;;;;;;;1.60;1.60;;;;;;;;;;4206491;28;20247;-60
2023/05/16 04:17:15;;;;;;;1.95;1.85;;;;;;;;;;4205050;28;20051;-60
2023/05/16 04:19:35;;;;;;;1.40;1.40;;;;;;;;;;4204917;28;20047;-61
2023/05/16 04:21:56;;;;;;;1.23;1.23;;;;;;;;;;4205969;28;20086;-61
2023/05/16 04:24:16;;;;;;;1.20;1.20;;;;;;;;;;4205799;28;20366;-61
2023/05/16 04:26:36;;;;;;;1.58;1.40;;;;;;;;;;4206538;28;20050;-61
2023/05/16 04:28:57;;;;;;;1.20;1.20;;;;;;;;;;4205889;28;20239;-60
2023/05/16 04:31:17;;;;;;;1.45;1.45;;;;;;;;;;4206410;28;20142;-60
2023/05/16 04:33:37;;;;;;;1.65;1.55;;;;;;;;;;4206052;28;20048;-61
2023/05/16 04:35:57;;;;;;;1.38;1.38;;;;;;;;;;4206382;28;20090;-61
2023/05/16 04:38:17;;;;;;;1.50;1.50;;;;;;;;;;4205977;28;20051;-60
2023/05/16 04:40:39;;;;;;;1.50;1.50;;;;;;;;;;4206002;28;20151;-61
2023/05/16 04:42:59;;;;;;;1.40;1.40;;;;;;;;;;4205979;28;20381;-61
2023/05/16 04:45:19;;;;;;;1.50;1.50;;;;;;;;;;4206072;28;20050;-60
2023/05/16 04:47:40;;;;;;;1.50;1.50;;;;;;;;;;4205846;28;20067;-61
2023/05/16 04:50:00;;;;;;;1.60;1.40;;;;;;;;;;4203874;28;20097;-60
2023/05/16 04:52:20;;;;;;;1.50;1.50;;;;;;;;;;4206207;28;20051;-61
2023/05/16 04:54:41;;;;;;;1.60;1.60;;;;;;;;;;4206052;28;20051;-60
2023/05/16 04:57:01;;;;;;;1.80;1.80;;;;;;;;;;4206076;28;20098;-61
2023/05/16 04:59:21;;;;;;;1.20;1.20;;;;;;;;;;4205367;28;20093;-61
2023/05/16 05:01:41;;;;;;;1.70;1.40;;;;;;;;;;4205214;28;20326;-60
2023/05/16 05:04:01;;;;;;;1.27;1.27;;;;;;;;;;4205847;28;20078;-60
2023/05/16 05:06:22;;;;;;;1.60;1.60;;;;;;;;;;4205077;28;20410;-60
2023/05/16 05:08:42;;;;;;;1.80;1.70;;;;;;;;;;4205034;28;20071;-60
2023/05/16 05:11:02;;;;;;;1.20;1.20;;;;;;;;;;4205010;28;20086;-60
2023/05/16 05:13:23;;;;;;;1.85;1.30;;;;;;;;;;4205502;28;20043;-60
2023/05/16 05:15:43;;;;;;;1.20;1.20;;;;;;;;;;4205188;28;20043;-60
2023/05/16 05:18:03;;;;;;;1.13;1.13;;;;;;;;;;4205137;28;20386;-61
2023/05/16 05:20:24;;;;;;;1.20;1.20;;;;;;;;;;4205248;28;20079;-61
2023/05/16 05:22:45;;;;;;;1.95;1.95;;;;;;;;;;4205257;28;20082;-60
2023/05/16 05:25:06;;;;;;;1.40;1.40;;;;;;;;;;4205352;28;20273;-60
2023/05/16 05:27:26;;;;;;;1.20;1.20;;;;;;;;;;4203736;28;20397;-61
2023/05/16 05:29:46;;;;;;;1.48;1.48;;;;;;;;;;4205550;28;20048;-60
2023/05/16 05:32:07;;;;;;;1.50;1.50;;;;;;;;;;4205374;28;20408;-60
2023/05/16 05:34:28;;;;;;;1.23;1.23;;;;;;;;;;4205330;28;20044;-60
2023/05/16 05:36:48;;;;;;;1.30;1.30;;;;;;;;;;4205579;28;20051;-60
2023/05/16 05:39:08;;;;;;;1.45;1.30;;;;;;;;;;4204855;28;20063;-60
2023/05/16 05:41:28;;;;;;;1.20;1.20;;;;;;;;;;4205410;28;20058;-60
2023/05/16 05:43:49;;;;;;;1.20;1.20;;;;;;;;;;4205576;28;20047;-60
2023/05/16 05:46:09;;;;;;;1.20;1.20;;;;;;;;;;4205456;28;20104;-60
2023/05/16 05:48:31;;;;;;;1.10;1.10;;;;;;;;;;4204955;28;20052;-60
2023/05/16 05:50:51;;;;;;;1.20;1.20;;;;;;;;;;4205081;28;20224;-60
2023/05/16 05:53:12;;;;;;;1.55;1.20;;;;;;;;;;4204891;28;20071;-60
2023/05/16 05:55:32;;;;;;;1.17;1.17;;;;;;;;;;4205371;28;20090;-60
2023/05/16 05:57:52;;;;;;;1.20;1.20;;;;;;;;;;4204592;28;20064;-61
2023/05/16 06:00:12;;;;;;;1.30;1.20;;;;;;;;;;4204447;28;20370;-61
2023/05/16 06:02:33;;;;;;;1.40;1.40;;;;;;;;;;4204217;28;20051;-60
2023/05/16 06:04:53;;;;;;;1.20;1.20;;;;;;;;;;4205134;28;20251;-60
2023/05/16 06:07:14;;;;;;;1.80;1.70;;;;;;;;;;4204025;28;20083;-61
2023/05/16 06:09:35;;;;;;;2.00;1.38;;;;;;;;;;4203784;28;20042;-61
2023/05/16 06:11:55;;;;;;;1.42;1.42;;;;;;;;;;4205132;28;20248;-61
2023/05/16 06:14:15;;;;;;;1.98;1.90;;;;;;;;;;4204634;28;20100;-61
2023/05/16 06:16:35;;;;;;;1.42;1.42;;;;;;;;;;4203598;28;20047;-61
2023/05/16 06:18:55;;;;;;;1.33;1.33;;;;;;;;;;4203117;28;20055;-61
2023/05/16 06:21:15;;;;;;;1.35;1.35;;;;;;;;;;4205239;28;20083;-61
2023/05/16 06:23:35;;;;;;;1.60;1.60;;;;;;;;;;4204213;28;20055;-60
2023/05/16 06:25:56;;;;;;;1.85;1.80;;;;;;;;;;4203011;28;20050;-61
2023/05/16 06:28:16;;;;;;;1.80;1.80;;;;;;;;;;4204967;28;20062;-63
2023/05/16 06:30:36;;;;;;;1.95;1.95;;;;;;;;;;4204812;28;20236;-64
2023/05/16 06:32:56;;;;;;;1.60;1.60;;;;;;;;;;4203566;28;20056;-63
2023/05/16 06:35:16;;;;;;;1.50;1.50;;;;;;;;;;4202261;28;20058;-61
2023/05/16 06:37:36;;;;;;;1.10;1.10;;;;;;;;;;4204188;28;20074;-64
2023/05/16 06:39:56;;;;;;;1.42;1.42;;;;;;;;;;4204793;28;20055;-61
2023/05/16 06:42:16;;;;;;;1.45;1.38;;;;;;;;;;4204651;28;20074;-61
2023/05/16 06:44:37;;;;;;;1.60;1.60;;;;;;;;;;4204792;28;20048;-61
2023/05/16 06:46:57;;;;;;;2.92;1.52;;;;;;;;;;4204836;28;20072;-61
2023/05/16 06:49:17;;;;;;;2.08;2.08;;;;;;;;;;4204225;28;20329;-60
2023/05/16 06:51:39;;;;;;;1.63;1.63;;;;;;;;;;4206664;28;20392;-61
2023/05/16 06:53:59;;;;;;;1.90;1.83;;;;;;;;;;4207664;28;20066;-61
2023/05/16 06:56:23;;;;;;;1.67;1.67;;;;;;;;;;4207082;28;20059;-60
2023/05/16 06:58:43;;;;;;;1.80;1.80;;;;;;;;;;4206857;28;20401;-61
2023/05/16 07:01:03;;;;;;;1.70;1.70;;;;;;;;;;4207574;28;20392;-61
2023/05/16 07:03:28;;;;;;;1.50;1.50;;;;;;;;;;4207440;28;20085;-61
2023/05/16 07:05:51;;;;;;;1.88;1.88;;;;;;;;;;4206826;28;20401;-61
2023/05/16 07:08:12;;;;;;;1.40;1.40;;;;;;;;;;4207053;28;20075;-61
2023/05/16 07:10:32;;;;;;;1.77;1.67;;;;;;;;;;4206906;28;20050;-61
2023/05/16 07:12:52;;;;;;;1.58;1.58;;;;;;;;;;4207429;28;20089;-61
2023/05/16 07:15:12;;;;;;;1.38;1.38;;;;;;;;;;4206488;28;20094;-61
2023/05/16 07:17:32;;;;;;;1.48;1.48;;;;;;;;;;4207506;28;20073;-61
2023/05/16 07:19:53;;;;;;;1.48;1.48;;;;;;;;;;4206563;28;20059;-61
2023/05/16 07:22:13;;;;;;;1.90;1.90;;;;;;;;;;4206609;28;20457;-61
2023/05/16 07:24:35;;;;;;;1.52;1.52;;;;;;;;;;4207227;28;20113;-61
2023/05/16 07:26:55;;;;;;;1.70;1.70;;;;;;;;;;4206890;28;20067;-61
2023/05/16 07:29:15;;;;;;;1.65;1.65;;;;;;;;;;4207049;28;20378;-61
2023/05/16 07:31:35;;;;;;;1.70;1.70;;;;;;;;;;4207191;28;20086;-61
2023/05/16 07:33:55;;;;;;;1.60;1.60;;;;;;;;;;4206748;28;20319;-61
2023/05/16 07:36:15;;;;;;;1.67;1.67;;;;;;;;;;4206626;28;20094;-60
2023/05/16 07:38:37;;;;;;;1.65;1.65;;;;;;;;;;4206888;28;20098;-61
2023/05/16 07:40:57;;;;;;;1.60;1.50;;;;;;;;;;4192012;28;20052;-60
2023/05/16 07:43:17;;;;;;;1.52;1.52;;;;;;;;;;4206762;28;20047;-61
2023/05/16 07:45:40;;;;;;;2.70;2.33;;;;;;;;;;4206932;28;20075;-60
2023/05/16 07:48:00;;;;;;;1.80;1.80;;;;;;;;;;4206019;28;20323;-60
2023/05/16 07:50:20;;;;;;;2.42;2.42;;;;;;;;;;4204991;28;20051;-60
2023/05/16 07:52:41;;;;;;;2.15;2.13;;;;;;;;;;4206178;28;20070;-61
2023/05/16 07:55:01;;;;;;;1.80;1.80;;;;;;;;;;4206610;28;20062;-61
2023/05/16 07:57:24;;;;;;;2.22;2.13;;;;;;;;;;4192104;28;20063;-60
2023/05/16 07:59:45;;;;;;;1.67;1.67;;;;;;;;;;4204770;28;20095;-61
2023/05/16 08:02:06;;;;;;;1.90;1.90;;;;;;;;;;4206459;28;20071;-61
2023/05/16 08:04:26;;;;;;;2.10;2.10;;;;;;;;;;4206766;28;20398;-60
2023/05/16 08:06:46;;;;;;;2.50;2.22;;;;;;;;;;4206964;28;20055;-60
2023/05/16 08:09:08;;;;;;;2.63;2.47;;;;;;;;;;4204624;28;20082;-60
2023/05/16 08:11:28;;;;;;;2.47;2.47;;;;;;;;;;4205933;28;20051;-59
2023/05/16 08:13:49;;;;;;;2.13;1.75;;;;;;;;;;4206589;28;20205;-60
2023/05/16 08:16:10;;;;;;;1.45;1.45;;;;;;;;;;4205067;28;20071;-60
2023/05/16 08:18:30;;;;;;;1.70;1.70;;;;;;;;;;4204503;28;20059;-61
2023/05/16 08:20:51;;;;;;;2.40;2.40;;;;;;;;;;4206725;28;20235;-60
2023/05/16 08:23:11;;;;;;;2.45;2.45;;;;;;;;;;4206153;28;20460;-61
2023/05/16 08:25:32;;;;;;;2.17;2.17;;;;;;;;;;4206484;28;20612;-61
2023/05/16 08:27:52;;;;;;;1.90;1.90;;;;;;;;;;4206496;28;20078;-60
2023/05/16 08:30:13;;;;;;;2.22;2.22;;;;;;;;;;4206255;28;20100;-60
2023/05/16 08:32:33;;;;;;;2.50;2.38;;;;;;;;;;4205699;28;20277;-60
2023/05/16 08:34:54;;;;;;;1.90;1.90;;;;;;;;;;4206393;28;20273;-59
2023/05/16 08:37:14;;;;;;;2.00;1.90;;;;;;;;;;4205939;28;20071;-59
2023/05/16 08:39:40;;;;;;;1.88;1.67;;;;;;;;;;4204581;28;20089;-59
2023/05/16 08:42:00;;;;;;;1.70;1.70;;;;;;;;;;4205188;28;20079;-59
2023/05/16 08:44:20;;;;;;;2.33;2.20;;;;;;;;;;4205329;28;20078;-59
2023/05/16 08:46:41;;;;;;;2.08;1.98;;;;;;;;;;4206058;28;20051;-60
2023/05/16 08:49:03;;;;;;;2.65;2.33;;;;;;;;;;4205763;28;20366;-60
2023/05/16 08:51:24;;;;;;;2.45;2.45;;;;;;;;;;4206069;28;20247;-60
2023/05/16 08:53:50;;;;;;;2.45;2.35;;;;;;;;;;4205475;28;20453;-60
2023/05/16 08:56:12;;;;;;;2.13;2.13;;;;;;;;;;4205566;28;20038;-60
2023/05/16 08:58:33;;;;;;;2.70;2.60;;;;;;;;;;4206054;28;20048;-60
2023/05/16 09:00:53;;;;;;;3.40;3.13;;;;;;;;;;4205490;28;20093;-59
2023/05/16 09:03:13;;;;;;;8.07;2.50;;;;;;;;;;4205405;28;20078;-60
2023/05/16 09:05:34;;;;;;;1.70;1.67;;;;;;;;;;4205228;28;20236;-59
2023/05/16 09:07:54;;;;;;;4.13;2.17;;;;;;;;;;4205981;28;20055;-60
2023/05/16 09:10:15;;;;;;;2.45;1.90;;;;;;;;;;4205018;28;20048;-60
2023/05/16 09:12:35;;;;;;;1.60;1.60;;;;;;;;;;4205001;28;20051;-60
2023/05/16 09:14:56;;;;;;;1.85;1.75;;;;;;;;;;4205507;28;20059;-59
2023/05/16 09:17:16;;;;;;;2.08;1.98;;;;;;;;;;4205714;28;20047;-60
2023/05/16 09:19:47;;;;;;;1.90;1.90;;;;;;;;;;4205418;28;20052;-60
2023/05/16 09:22:14;;;;;;;1.50;1.50;;;;;;;;;;4205415;28;20142;-60
2023/05/16 09:24:39;;;;;;;1.77;1.67;;;;;;;;;;4205375;28;20055;-60
2023/05/16 09:27:07;;;;;;;1.50;1.50;;;;;;;;;;4203042;28;20052;-60
2023/05/16 09:29:27;;;;;;;2.05;1.95;;;;;;;;;;4188119;28;20074;-59
2023/05/16 09:31:49;;;;;;;1.30;1.30;;;;;;;;;;4188334;28;20056;-60
2023/05/16 09:34:11;;;;;;;1.63;1.63;;;;;;;;;;4204992;28;20051;-60
2023/05/16 09:36:32;;;;;;;1.63;1.52;;;;;;;;;;4204385;28;20066;-60
2023/05/16 09:38:52;;;;;;;1.45;1.45;;;;;;;;;;4204165;28;20047;-60
2023/05/16 09:41:12;;;;;;;1.40;1.40;;;;;;;;;;4204062;28;20072;-59
2023/05/16 09:43:33;;;;;;;1.77;1.77;;;;;;;;;;4204655;28;20082;-59
2023/05/16 09:45:59;;;;;;;1.40;1.40;;;;;;;;;;4204596;28;20386;-60
2023/05/16 09:48:20;;;;;;;1.48;1.48;;;;;;;;;;4204809;28;20169;-60
2023/05/16 09:50:46;;;;;;;1.30;1.30;;;;;;;;;;4205031;28;20063;-59
2023/05/16 09:53:06;;;;;;;1.73;1.63;;;;;;;;;;4204994;28;20079;-59
2023/05/16 09:55:26;;;;;;;1.50;1.48;;;;;;;;;;4204774;28;20052;-59
2023/05/16 09:57:47;;;;;;;1.90;1.77;;;;;;;;;;4203602;28;20055;-59
2023/05/16 10:00:09;;;;;;;1.58;1.50;;;;;;;;;;4204833;28;20098;-59
2023/05/16 10:02:30;;;;;;;1.30;1.30;;;;;;;;;;4204883;28;20079;-60
2023/05/16 10:04:51;;;;;;;1.33;1.33;;;;;;;;;;4189884;28;20048;-60
2023/05/16 10:07:12;;;;;;;1.10;1.10;;;;;;;;;;4203570;28;20195;-59
2023/05/16 10:09:33;;;;;;;1.10;1.10;;;;;;;;;;4204831;28;20044;-59
2023/05/16 10:11:54;;;;;;;1.38;1.20;;;;;;;;;;4205051;28;20055;-59
2023/05/16 10:14:19;;;;;;;1.10;1.10;;;;;;;;;;4204390;28;20043;-60
2023/05/16 10:16:41;;;;;;;1.17;1.10;;;;;;;;;;4204101;28;20094;-59
2023/05/16 10:19:04;;;;;;;1.30;1.30;;;;;;;;;;4203121;28;20074;-59
2023/05/16 10:21:25;;;;;;;1.20;1.15;;;;;;;;;;4203233;28;20048;-59
2023/05/16 10:23:47;;;;;;;1.73;1.20;;;;;;;;;;4203285;28;20056;-59
2023/05/16 10:26:08;;;;;;;1.40;1.17;;;;;;;;;;4205529;28;20063;-59
2023/05/16 10:28:28;;;;;;;1.10;1.10;;;;;;;;;;4206621;28;20051;-60
2023/05/16 10:30:50;;;;;;;1.00;1.00;;;;;;;;;;4206682;28;20055;-60
2023/05/16 10:33:14;;;;;;;1.10;1.10;;;;;;;;;;4206890;28;20079;-60
2023/05/16 10:35:35;;;;;;;1.08;1.08;;;;;;;;;;4207561;28;20336;-60
2023/05/16 10:37:57;;;;;;;1.25;1.25;;;;;;;;;;4206711;28;20055;-61
2023/05/16 10:40:18;;;;;;;2.65;2.65;;;;;;;;;;4206362;28;20270;-60
2023/05/16 10:42:38;;;;;;;1.27;1.27;;;;;;;;;;4206456;28;20098;-60
2023/05/16 10:45:14;;;;;;;1.10;1.10;;;;;;;;;;4207323;28;20047;-60
2023/05/16 10:47:34;;;;;;;1.48;1.48;;;;;;;;;;4206060;28;20093;-60
2023/05/16 10:49:54;;;;;;;1.50;1.50;;;;;;;;;;4206310;28;20063;-60
2023/05/16 10:52:16;;;;;;;1.65;1.55;;;;;;;;;;4206356;28;20086;-60
2023/05/16 10:54:50;;;;;;;1.08;1.08;;;;;;;;;;4206299;28;20113;-59
2023/05/16 10:57:10;;;;;;;;;;;;;;;;;;4206753;28;20094;-60
2023/05/16 10:59:39;;;;;;;1.30;1.30;;;;;;;;;;4184424;28;19963;-60
2023/05/16 11:01:59;;;;;;;1.42;1.42;;;;;;;;;;4207214;28;20104;-60
2023/05/16 11:04:19;;;;;;;1.25;1.25;;;;;;;;;;4206536;28;20063;-59
2023/05/16 11:06:40;;;;;;;1.33;1.33;;;;;;;;;;4206978;28;20273;-60
2023/05/16 11:09:08;;;;;;;1.20;1.20;;;;;;;;;;4207006;28;20098;-60
2023/05/16 11:11:48;;;;;;;3.67;3.58;;;;;;;;;;4206917;28;20055;-60
2023/05/16 11:14:17;;;;;;;1.80;1.80;;;;;;;;;;4206778;28;20244;-59
2023/05/16 11:16:38;;;;;;;1.42;1.38;;;;;;;;;;4206788;28;20054;-60
2023/05/16 11:19:06;;;;;;;1.17;1.17;;;;;;;;;;4206672;28;20243;-59
2023/05/16 11:21:46;;;;;;;1.20;1.20;;;;;;;;;;4205969;28;20055;-59
2023/05/16 11:24:25;;;;;;;1.20;1.20;;;;;;;;;;4207024;28;20089;-60
2023/05/16 11:26:48;;;;;;;1.10;1.10;;;;;;;;;;4206150;28;20155;-61
2023/05/16 11:29:08;;;;;;;1.10;1.10;;;;;;;;;;4206420;28;20090;-60
2023/05/16 11:31:29;;;;;;;1.20;1.20;;;;;;;;;;4206203;28;20108;-60
2023/05/16 11:33:52;;;;;;;1.20;1.20;;;;;;;;;;4206255;28;20101;-60
2023/05/16 11:36:13;;;;;;;1.58;1.58;;;;;;;;;;4206790;28;20122;-60
2023/05/16 11:38:37;;;;;;;1.55;1.10;;;;;;;;;;4205484;28;20086;-60
2023/05/16 11:41:05;;;;;;;1.10;1.10;;;;;;;;;;4205675;28;20094;-60
2023/05/16 11:43:25;;;;;;;1.10;1.10;;;;;;;;;;4205667;28;20104;-60
2023/05/16 11:45:46;;;;;;;1.17;1.10;;;;;;;;;;4206279;28;20232;-60
2023/05/16 11:48:07;;;;;;;1.00;1.00;;;;;;;;;;4205163;28;20143;-60
2023/05/16 11:50:27;;;;;;;1.00;1.00;;;;;;;;;;4206061;28;20051;-60
2023/05/16 11:52:52;;;;;;;1.00;1.00;;;;;;;;;;4205016;28;20075;-60
2023/05/16 11:55:13;;;;;;;1.00;1.00;;;;;;;;;;4206304;28;20430;-60
2023/05/16 11:57:40;;;;;;;1.10;1.10;;;;;;;;;;4206139;28;20086;-60
2023/05/16 12:00:03;;;;;;;1.30;1.30;;;;;;;;;;4204963;28;20078;-60
2023/05/16 12:02:23;;;;;;;1.10;1.10;;;;;;;;;;4189966;28;20083;-60
2023/05/16 12:04:47;;;;;;;1.30;1.00;;;;;;;;;;4205966;28;20055;-60
2023/05/16 12:07:08;;;;;;;1.20;1.20;;;;;;;;;;4205934;28;20366;-60
2023/05/16 12:09:28;;;;;;;1.30;1.30;;;;;;;;;;4205862;28;20455;-60
2023/05/16 12:11:49;;;;;;;1.40;1.40;;;;;;;;;;4206084;28;20052;-60
2023/05/16 12:14:10;;;;;;;1.42;1.42;;;;;;;;;;4205801;28;20047;-60
2023/05/16 12:16:31;;;;;;;1.50;1.50;;;;;;;;;;4205796;28;20078;-60
2023/05/16 12:18:52;;;;;;;1.45;1.45;;;;;;;;;;4205910;28;20082;-60
2023/05/16 12:21:13;;;;;;;1.50;1.50;;;;;;;;;;4206042;28;20270;-60
2023/05/16 12:23:34;;;;;;;1.30;1.30;;;;;;;;;;4205966;28;20047;-59
2023/05/16 12:25:56;;;;;;;1.20;1.20;;;;;;;;;;4205805;28;20079;-60
2023/05/16 12:28:20;;;;;;;1.10;1.10;;;;;;;;;;4205851;28;20055;-60
2023/05/16 12:30:41;;;;;;;1.50;1.38;;;;;;;;;;4206141;28;20051;-60
2023/05/16 12:33:12;;;;;;;1.00;1.00;;;;;;;;;;4205205;28;20090;-60
2023/05/16 12:35:33;;;;;;;1.00;1.00;;;;;;;;;;4205649;28;20109;-60
2023/05/16 12:37:54;;;;;;;1.00;1.00;;;;;;;;;;4204278;28;20487;-60
2023/05/16 12:40:15;;;;;;;1.10;1.10;;;;;;;;;;4205890;28;20121;-60
2023/05/16 12:42:35;;;;;;;1.10;1.10;;;;;;;;;;4205076;28;20090;-59
2023/05/16 12:44:56;;;;;;;1.17;1.10;;;;;;;;;;4204930;28;20135;-59
2023/05/16 12:47:16;;;;;;;1.00;1.00;;;;;;;;;;4205797;28;20056;-60
2023/05/16 12:49:37;;;;;;;1.00;1.00;;;;;;;;;;4205074;28;20282;-59
2023/05/16 12:52:04;;;;;;;1.00;1.00;;;;;;;;;;4205549;28;20150;-60
2023/05/16 12:54:24;;;;;;;1.58;1.58;;;;;;;;;;4205134;28;20079;-59
2023/05/16 12:56:44;;;;;;;1.27;1.20;;;;;;;;;;4204498;28;20051;-59
2023/05/16 12:59:05;;;;;;;1.00;1.00;;;;;;;;;;4204382;28;20090;-59
2023/05/16 13:01:28;;;;;;;3.00;1.65;;;;;;;;;;4205621;28;20093;-60
2023/05/16 13:03:48;;;;;;;1.10;1.10;;;;;;;;;;4205191;28;20048;-63
2023/05/16 13:06:09;;;;;;;1.10;1.10;;;;;;;;;;4204670;28;20048;-59
2023/05/16 13:08:29;;;;;;;1.02;1.02;;;;;;;;;;4204772;28;20381;-59
2023/05/16 13:10:50;;;;;;;1.42;1.42;;;;;;;;;;4205598;28;20279;-59
2023/05/16 13:13:11;;;;;;;2.20;2.00;;;;;;;;;;4204754;28;20091;-59
2023/05/16 13:15:34;;;;;;;1.85;1.85;;;;;;;;;;4204661;28;20054;-59
2023/05/16 13:17:55;;;;;;;1.00;1.00;;;;;;;;;;4204525;28;20043;-59
2023/05/16 13:20:16;;;;;;;1.10;1.10;;;;;;;;;;4204913;28;20051;-60
2023/05/16 13:22:36;;;;;;;1.00;1.00;;;;;;;;;;4204458;28;20289;-60
2023/05/16 13:24:56;;;;;;;1.10;1.10;;;;;;;;;;4205173;28;20043;-60
2023/05/16 13:27:16;;;;;;;1.10;1.10;;;;;;;;;;4205251;28;20055;-60
2023/05/16 13:29:37;;;;;;;1.00;1.00;;;;;;;;;;4205262;28;20048;-59
2023/05/16 13:31:57;;;;;;;1.00;1.00;;;;;;;;;;4204367;28;20059;-60
2023/05/16 13:34:17;;;;;;;1.00;1.00;;;;;;;;;;4205077;28;20048;-59
2023/05/16 13:36:37;;;;;;;1.00;1.00;;;;;;;;;;4205165;28;20083;-60
2023/05/16 13:39:13;;;;;;;1.10;1.00;;;;;;;;;;4199665;28;20261;-59
2023/05/16 13:41:36;;;;;;;0.90;0.90;;;;;;;;;;4204922;28;20256;-59
2023/05/16 13:43:56;;;;;;;0.90;0.90;;;;;;;;;;4190321;28;20060;-59
2023/05/16 13:46:16;;;;;;;2.75;1.00;;;;;;;;;;4205125;28;20082;-60
2023/05/16 13:48:36;;;;;;;1.02;1.02;;;;;;;;;;4205035;28;20270;-60
2023/05/16 13:50:57;;;;;;;1.10;1.10;;;;;;;;;;4204917;28;20047;-60
2023/05/16 13:53:17;;;;;;;1.00;1.00;;;;;;;;;;4203626;28;20389;-59
2023/05/16 13:55:37;;;;;;;1.10;1.10;;;;;;;;;;4204897;28;20047;-59
2023/05/16 13:57:57;;;;;;;1.10;1.10;;;;;;;;;;4202926;28;20047;-59
2023/05/16 14:00:18;;;;;;;2.30;2.30;;;;;;;;;;4204396;28;20081;-59
2023/05/16 14:02:58;;;;;;;2.42;2.42;;;;;;;;;;4207611;28;20055;-59
2023/05/16 14:05:18;;;;;;;1.45;1.35;;;;;;;;;;4207715;28;20051;-59
2023/05/16 14:07:39;;;;;;;1.13;1.13;;;;;;;;;;4207251;28;20051;-59